createdAt,value
2019-03-24T00:01:41.358Z,56.00
2019-03-24T00:04:11.538Z,56.00
2019-03-24T00:06:43.180Z,55.90
2019-03-24T00:09:16.698Z,55.80
2019-03-24T00:11:48.287Z,55.80
2019-03-24T00:14:21.043Z,55.90
2019-03-24T00:16:52.994Z,56.00
2019-03-24T00:19:25.769Z,56.40
2019-03-24T00:21:56.881Z,56.30
2019-03-24T00:24:28.903Z,56.80
2019-03-24T00:27:00.127Z,56.50
2019-03-24T00:29:32.031Z,56.80
2019-03-24T00:32:03.657Z,56.80
2019-03-24T00:34:34.929Z,56.90
2019-03-24T00:37:05.915Z,56.90
2019-03-24T00:39:42.371Z,56.70
2019-03-24T00:42:14.125Z,56.20
2019-03-24T00:44:45.653Z,56.20
2019-03-24T00:47:16.682Z,56.10
2019-03-24T00:49:48.237Z,56.40
2019-03-24T00:52:19.541Z,56.40
2019-03-24T00:54:50.674Z,56.50
2019-03-24T00:57:21.763Z,56.70
2019-03-24T00:59:53.270Z,56.80
2019-03-24T01:02:24.759Z,56.80
2019-03-24T01:04:58.371Z,56.80
2019-03-24T01:07:29.930Z,56.80
2019-03-24T01:10:01.882Z,56.70
2019-03-24T01:12:33.397Z,56.40
2019-03-24T01:15:05.222Z,57.10
2019-03-24T01:17:36.784Z,56.50
2019-03-24T01:20:08.630Z,56.80
2019-03-24T01:22:39.859Z,56.40
2019-03-24T01:25:11.003Z,56.70
2019-03-24T01:27:42.073Z,56.70
2019-03-24T01:30:13.290Z,56.70
2019-03-24T01:32:45.055Z,56.70
2019-03-24T01:35:16.418Z,56.70
2019-03-24T01:37:47.920Z,56.70
2019-03-24T01:40:20.957Z,56.60
2019-03-24T01:42:52.064Z,56.90
2019-03-24T01:45:23.235Z,56.90
2019-03-24T01:47:54.559Z,56.60
2019-03-24T01:50:25.638Z,56.60
2019-03-24T01:52:57.040Z,57.00
2019-03-24T01:55:28.958Z,57.40
2019-03-24T01:58:00.108Z,57.00
2019-03-24T02:00:31.242Z,56.60
2019-03-24T02:03:02.383Z,56.70
2019-03-24T02:05:35.210Z,56.60
2019-03-24T02:08:06.354Z,56.60
2019-03-24T02:10:37.526Z,56.80
2019-03-24T02:13:09.015Z,57.20
2019-03-24T02:15:40.666Z,57.90
2019-03-24T02:18:12.356Z,58.10
2019-03-24T02:20:43.331Z,58.10
2019-03-24T02:23:15.024Z,58.10
2019-03-24T02:25:46.166Z,58.40
2019-03-24T02:28:17.529Z,58.00
2019-03-24T02:30:49.140Z,58.40
2019-03-24T02:33:20.381Z,58.10
2019-03-24T02:35:52.033Z,57.90
2019-03-24T02:38:23.128Z,57.80
2019-03-24T02:40:54.593Z,57.60
2019-03-24T02:43:25.828Z,57.40
2019-03-24T02:45:57.588Z,56.60
2019-03-24T02:48:29.129Z,56.90
2019-03-24T02:51:00.840Z,57.10
2019-03-24T02:53:31.982Z,57.30
2019-03-24T02:56:03.289Z,57.50
2019-03-24T02:58:35.328Z,57.60
2019-03-24T03:01:06.430Z,57.60
2019-03-24T03:03:37.663Z,57.70
2019-03-24T03:06:09.164Z,57.60
2019-03-24T03:08:40.642Z,57.40
2019-03-24T03:11:12.223Z,57.50
2019-03-24T03:13:43.590Z,57.80
2019-03-24T03:16:15.016Z,58.00
2019-03-24T03:18:46.274Z,58.00
2019-03-24T03:21:17.473Z,57.80
2019-03-24T03:23:48.612Z,57.80
2019-03-24T03:26:19.718Z,57.50
2019-03-24T03:28:50.844Z,57.60
2019-03-24T03:31:22.204Z,57.80
2019-03-24T03:33:53.677Z,57.80
2019-03-24T03:36:24.792Z,57.90
2019-03-24T03:38:55.905Z,58.00
2019-03-24T03:41:27.136Z,58.00
2019-03-24T03:43:58.292Z,58.30
2019-03-24T03:46:29.322Z,58.40
2019-03-24T03:49:00.505Z,58.70
2019-03-24T03:51:31.916Z,58.80
2019-03-24T03:54:03.064Z,58.60
2019-03-24T03:56:34.361Z,58.50
2019-03-24T03:59:05.385Z,58.40
2019-03-24T04:01:36.928Z,58.30
2019-03-24T04:04:08.247Z,58.10
2019-03-24T04:06:39.547Z,57.90
2019-03-24T04:09:10.722Z,57.90
2019-03-24T04:11:42.062Z,57.80
2019-03-24T04:14:13.484Z,58.30
2019-03-24T04:16:45.528Z,58.30
2019-03-24T04:19:16.768Z,58.20
2019-03-24T04:21:48.779Z,58.20
2019-03-24T04:24:20.274Z,58.10
2019-03-24T04:26:51.751Z,58.20
2019-03-24T04:29:23.181Z,58.20
2019-03-24T04:31:54.284Z,58.30
2019-03-24T04:34:25.308Z,58.20
2019-03-24T04:36:56.455Z,57.90
2019-03-24T04:39:27.993Z,57.60
2019-03-24T04:41:59.104Z,57.70
2019-03-24T04:44:30.115Z,57.80
2019-03-24T04:47:01.323Z,58.00
2019-03-24T04:49:32.349Z,58.10
2019-03-24T04:52:03.719Z,58.00
2019-03-24T04:54:37.975Z,58.20
2019-03-24T04:57:09.119Z,59.70
2019-03-24T04:59:40.925Z,60.00
2019-03-24T05:02:12.883Z,60.30
2019-03-24T05:04:44.357Z,61.10
2019-03-24T05:07:15.952Z,60.70
2019-03-24T05:09:47.885Z,60.50
2019-03-24T05:12:18.948Z,60.60
2019-03-24T05:14:53.123Z,60.80
2019-03-24T05:17:27.278Z,60.60
2019-03-24T05:19:57.995Z,60.40
2019-03-24T05:22:29.795Z,60.10
2019-03-24T05:25:00.883Z,60.20
2019-03-24T05:27:32.036Z,61.00
2019-03-24T05:30:03.529Z,60.80
2019-03-24T05:32:34.785Z,60.40
2019-03-24T05:35:06.601Z,60.10
2019-03-24T05:37:37.794Z,59.90
2019-03-24T05:40:09.714Z,59.60
2019-03-24T05:42:42.764Z,59.70
2019-03-24T05:45:13.888Z,59.60
2019-03-24T05:47:45.025Z,59.70
2019-03-24T05:50:16.808Z,59.40
2019-03-24T05:52:48.229Z,59.90
2019-03-24T05:55:19.735Z,59.50
2019-03-24T05:57:50.995Z,59.50
2019-03-24T06:00:22.161Z,59.50
2019-03-24T06:02:53.636Z,59.60
2019-03-24T06:05:25.187Z,59.70
2019-03-24T06:07:56.210Z,59.70
2019-03-24T06:10:27.274Z,59.70
2019-03-24T06:12:58.866Z,59.90
2019-03-24T06:15:30.201Z,59.70
2019-03-24T06:18:01.286Z,59.80
2019-03-24T06:20:33.043Z,60.00
2019-03-24T06:23:04.536Z,59.80
2019-03-24T06:25:36.094Z,59.80
2019-03-24T06:28:07.656Z,59.60
2019-03-24T06:30:39.194Z,59.90
2019-03-24T06:33:10.691Z,59.80
2019-03-24T06:35:42.618Z,60.00
2019-03-24T06:38:14.013Z,60.20
2019-03-24T06:40:45.209Z,60.40
2019-03-24T06:43:16.785Z,60.10
2019-03-24T06:45:48.014Z,59.00
2019-03-24T06:48:19.900Z,58.70
2019-03-24T06:50:51.063Z,58.60
2019-03-24T06:53:22.474Z,59.00
2019-03-24T06:55:53.578Z,58.90
2019-03-24T06:58:25.293Z,59.00
2019-03-24T07:00:56.291Z,59.00
2019-03-24T07:03:27.742Z,59.10
2019-03-24T07:05:58.922Z,59.10
2019-03-24T07:08:30.335Z,59.20
2019-03-24T07:11:01.479Z,59.20
2019-03-24T07:13:33.067Z,59.20
2019-03-24T07:16:04.412Z,59.10
2019-03-24T07:18:35.886Z,59.20
2019-03-24T07:21:07.463Z,59.00
2019-03-24T07:23:38.587Z,58.60
2019-03-24T07:26:10.182Z,58.60
2019-03-24T07:28:41.694Z,58.50
2019-03-24T07:31:13.515Z,58.60
2019-03-24T07:33:44.704Z,58.20
2019-03-24T07:36:16.665Z,58.00
2019-03-24T07:38:47.846Z,57.90
2019-03-24T07:41:19.162Z,58.00
2019-03-24T07:43:50.335Z,58.00
2019-03-24T07:46:21.811Z,57.90
2019-03-24T07:48:53.316Z,58.00
2019-03-24T07:51:24.487Z,57.60
2019-03-24T07:53:55.561Z,57.40
2019-03-24T07:56:27.096Z,57.20
2019-03-24T07:58:58.187Z,57.30
2019-03-24T08:01:29.563Z,56.90
2019-03-24T08:04:01.386Z,56.70
2019-03-24T08:06:32.720Z,57.40
2019-03-24T08:09:05.276Z,56.40
2019-03-24T08:11:36.620Z,56.10
2019-03-24T08:14:07.739Z,55.90
2019-03-24T08:16:38.785Z,55.60
2019-03-24T08:19:09.971Z,55.30
2019-03-24T08:21:41.208Z,55.40
2019-03-24T08:24:12.383Z,55.20
2019-03-24T08:26:43.450Z,55.00
2019-03-24T08:29:15.372Z,55.00
2019-03-24T08:31:46.419Z,54.30
2019-03-24T08:34:18.207Z,53.80
2019-03-24T08:36:49.884Z,53.60
2019-03-24T08:39:22.100Z,53.40
2019-03-24T08:41:53.820Z,53.20
2019-03-24T08:44:25.047Z,53.40
2019-03-24T08:46:56.945Z,53.00
2019-03-24T08:49:28.095Z,52.50
2019-03-24T08:51:59.244Z,52.10
2019-03-24T08:54:30.558Z,51.90
2019-03-24T08:57:01.916Z,51.80
2019-03-24T08:59:33.935Z,51.80
2019-03-24T09:02:05.048Z,51.30
2019-03-24T09:04:36.255Z,50.10
2019-03-24T09:07:07.641Z,49.80
2019-03-24T09:09:38.748Z,49.30
2019-03-24T09:12:10.509Z,49.40
2019-03-24T09:14:41.890Z,49.40
2019-03-24T09:17:13.393Z,49.30
2019-03-24T09:19:47.212Z,49.30
2019-03-24T09:22:18.495Z,49.30
2019-03-24T09:24:50.356Z,48.90
2019-03-24T09:27:21.460Z,49.30
2019-03-24T09:29:53.000Z,49.10
2019-03-24T09:32:24.120Z,49.00
2019-03-24T09:34:56.674Z,49.70
2019-03-24T09:37:34.165Z,49.40
2019-03-24T09:40:11.547Z,49.30
2019-03-24T09:42:44.353Z,49.10
2019-03-24T09:45:16.139Z,49.00
2019-03-24T09:47:47.796Z,48.70
2019-03-24T09:50:19.513Z,48.40
2019-03-24T09:52:50.613Z,48.40
2019-03-24T09:55:22.180Z,48.00
2019-03-24T09:57:53.437Z,47.90
2019-03-24T10:00:24.884Z,47.80
2019-03-24T10:02:55.870Z,47.70
2019-03-24T10:05:27.003Z,47.70
2019-03-24T10:07:58.142Z,47.80
2019-03-24T10:10:29.504Z,47.80
2019-03-24T10:13:00.744Z,47.70
2019-03-24T10:15:31.779Z,47.30
2019-03-24T10:18:02.870Z,47.50
2019-03-24T10:20:34.288Z,47.10
2019-03-24T10:23:05.404Z,47.10
2019-03-24T10:25:37.111Z,47.00
2019-03-24T10:28:08.663Z,46.80
2019-03-24T10:30:40.607Z,46.10
2019-03-24T10:33:11.638Z,46.00
2019-03-24T10:35:43.384Z,45.10
2019-03-24T10:38:14.626Z,43.90
2019-03-24T10:40:46.428Z,43.20
2019-03-24T10:43:18.054Z,43.10
2019-03-24T10:45:51.023Z,42.00
2019-03-24T10:48:33.119Z,41.20
2019-03-24T10:50:55.761Z,39.60
2019-03-24T10:53:26.920Z,39.10
2019-03-24T10:55:58.072Z,38.60
2019-03-24T10:58:29.650Z,38.10
2019-03-24T11:01:01.303Z,37.40
2019-03-24T11:03:32.416Z,36.60
2019-03-24T11:06:03.559Z,36.30
2019-03-24T11:08:34.835Z,35.60
2019-03-24T11:11:06.331Z,35.30
2019-03-24T11:13:37.844Z,34.80
2019-03-24T11:16:09.486Z,34.20
2019-03-24T11:18:40.649Z,34.40
2019-03-24T11:21:12.179Z,34.30
2019-03-24T11:23:45.370Z,33.60
2019-03-24T11:26:17.052Z,32.70
2019-03-24T11:28:48.345Z,32.40
2019-03-24T11:31:19.492Z,32.10
2019-03-24T11:33:50.724Z,31.80
2019-03-24T11:36:28.720Z,31.40
2019-03-24T11:39:09.635Z,31.90
2019-03-24T11:41:41.919Z,32.10
2019-03-24T11:44:12.959Z,32.70
2019-03-24T11:46:45.365Z,31.90
2019-03-24T11:49:20.077Z,31.40
2019-03-24T11:51:51.430Z,31.00
2019-03-24T11:54:22.751Z,30.90
2019-03-24T11:56:54.353Z,30.70
2019-03-24T11:59:26.019Z,31.40
2019-03-24T12:01:57.240Z,30.80
2019-03-24T12:04:28.833Z,30.40
2019-03-24T12:07:00.032Z,30.60
2019-03-24T12:09:33.599Z,30.70
2019-03-24T12:12:04.770Z,30.50
2019-03-24T12:14:39.104Z,30.40
2019-03-24T12:17:16.513Z,29.90
2019-03-24T12:19:56.465Z,29.30
2019-03-24T12:22:21.600Z,29.30
2019-03-24T12:24:53.086Z,29.30
2019-03-24T12:27:24.160Z,28.60
2019-03-24T12:29:55.453Z,28.50
2019-03-24T12:32:26.535Z,26.40
2019-03-24T12:35:09.887Z,26.70
2019-03-24T12:37:41.750Z,27.00
2019-03-24T12:40:13.430Z,26.70
2019-03-24T12:42:45.447Z,26.10
2019-03-24T12:45:27.829Z,26.10
2019-03-24T12:48:04.274Z,26.00
2019-03-24T12:50:39.704Z,25.80
2019-03-24T12:53:11.082Z,25.80
2019-03-24T12:55:42.285Z,25.80
2019-03-24T12:58:13.648Z,26.00
2019-03-24T13:00:47.029Z,25.90
2019-03-24T13:03:18.983Z,25.90
2019-03-24T13:05:50.760Z,26.00
2019-03-24T13:08:23.306Z,26.40
2019-03-24T13:10:55.335Z,26.80
2019-03-24T13:13:26.435Z,26.90
2019-03-24T13:15:57.492Z,26.60
2019-03-24T13:18:28.638Z,26.50
2019-03-24T13:20:59.823Z,26.80
2019-03-24T13:23:31.069Z,28.00
2019-03-24T13:26:02.282Z,29.70
2019-03-24T13:28:33.785Z,31.20
2019-03-24T13:31:07.244Z,32.60
2019-03-24T13:33:38.906Z,33.90
2019-03-24T13:36:14.832Z,35.10
2019-03-24T13:38:45.946Z,35.80
2019-03-24T13:41:17.103Z,36.40
2019-03-24T13:43:48.709Z,36.90
2019-03-24T13:46:20.249Z,37.20
2019-03-24T13:48:51.376Z,37.60
2019-03-24T13:51:22.511Z,38.20
2019-03-24T13:53:53.940Z,38.40
2019-03-24T13:56:25.246Z,38.70
2019-03-24T13:58:56.837Z,38.40
2019-03-24T14:01:28.091Z,38.60
2019-03-24T14:03:59.530Z,38.90
2019-03-24T14:06:31.204Z,38.90
2019-03-24T14:09:02.647Z,38.90
2019-03-24T14:11:34.791Z,39.10
2019-03-24T14:14:06.343Z,39.00
2019-03-24T14:16:38.204Z,38.80
2019-03-24T14:19:10.639Z,39.20
2019-03-24T14:21:42.786Z,39.00
2019-03-24T14:24:13.952Z,38.60
2019-03-24T14:26:45.096Z,38.10
2019-03-24T14:29:16.245Z,37.80
2019-03-24T14:31:48.686Z,37.80
2019-03-24T14:34:19.843Z,37.50
2019-03-24T14:36:52.434Z,37.30
2019-03-24T14:39:23.625Z,37.70
2019-03-24T14:41:54.722Z,37.60
2019-03-24T14:44:25.952Z,37.90
2019-03-24T14:46:57.462Z,37.60
2019-03-24T14:49:28.768Z,37.60
2019-03-24T14:52:00.112Z,37.90
2019-03-24T14:54:31.386Z,38.00
2019-03-24T14:57:02.808Z,37.60
2019-03-24T14:59:34.850Z,37.70
2019-03-24T15:02:06.122Z,37.60
2019-03-24T15:04:37.293Z,37.60
2019-03-24T15:07:08.476Z,37.10
2019-03-24T15:09:40.242Z,36.80
2019-03-24T15:12:11.318Z,36.80
2019-03-24T15:14:42.532Z,37.00
2019-03-24T15:17:13.961Z,37.30
2019-03-24T15:19:45.260Z,37.00
2019-03-24T15:22:16.995Z,37.10
2019-03-24T15:24:52.967Z,37.10
2019-03-24T15:27:24.122Z,37.30
2019-03-24T15:30:00.569Z,37.40
2019-03-24T15:32:32.935Z,37.60
2019-03-24T15:35:05.264Z,37.60
2019-03-24T15:37:44.039Z,37.60
2019-03-24T15:40:17.287Z,37.60
2019-03-24T15:42:56.002Z,37.50
2019-03-24T15:45:38.197Z,37.60
2019-03-24T15:48:22.950Z,37.70
2019-03-24T15:50:56.167Z,37.60
2019-03-24T15:53:27.928Z,37.50
2019-03-24T15:55:59.488Z,37.40
2019-03-24T15:58:31.182Z,37.50
2019-03-24T16:01:02.501Z,37.50
2019-03-24T16:03:34.529Z,37.40
2019-03-24T16:06:06.313Z,37.40
2019-03-24T16:08:37.787Z,37.70
2019-03-24T16:11:10.394Z,37.90
2019-03-24T16:13:42.064Z,38.20
2019-03-24T16:16:13.748Z,38.50
2019-03-24T16:18:44.966Z,38.60
2019-03-24T16:21:27.137Z,38.60
2019-03-24T16:23:49.519Z,39.00
2019-03-24T16:26:21.151Z,39.20
2019-03-24T16:28:52.336Z,39.50
2019-03-24T16:31:24.088Z,40.20
2019-03-24T16:33:55.334Z,39.70
2019-03-24T16:36:26.870Z,40.00
2019-03-24T16:39:03.474Z,40.00
2019-03-24T16:41:31.306Z,40.20
2019-03-24T16:44:03.571Z,40.50
2019-03-24T16:46:36.465Z,40.70
2019-03-24T16:49:08.414Z,40.80
2019-03-24T16:51:41.653Z,40.90
2019-03-24T16:54:13.000Z,41.10
2019-03-24T16:56:45.171Z,41.20
2019-03-24T16:59:17.412Z,41.30
2019-03-24T17:01:49.292Z,41.40
2019-03-24T17:04:22.240Z,41.50
2019-03-24T17:06:54.007Z,41.70
2019-03-24T17:09:25.652Z,41.80
2019-03-24T17:11:57.295Z,42.00
2019-03-24T17:14:29.485Z,42.40
2019-03-24T17:17:01.560Z,42.50
2019-03-24T17:19:33.100Z,42.50
2019-03-24T17:22:05.073Z,42.40
2019-03-24T17:24:36.937Z,42.40
2019-03-24T17:27:08.639Z,42.40
2019-03-24T17:29:40.331Z,41.90
2019-03-24T17:32:11.546Z,40.60
2019-03-24T17:34:43.524Z,40.90
2019-03-24T17:37:14.764Z,40.70
2019-03-24T17:39:54.230Z,40.80
2019-03-24T17:42:27.576Z,40.30
2019-03-24T17:45:01.153Z,39.50
2019-03-24T17:47:40.757Z,39.50
2019-03-24T17:50:14.910Z,39.20
2019-03-24T17:52:47.999Z,39.40
2019-03-24T17:55:27.542Z,39.40
2019-03-24T17:57:52.240Z,39.50
2019-03-24T18:00:45.692Z,39.50
2019-03-24T18:03:18.273Z,39.80
2019-03-24T18:06:09.966Z,40.20
2019-03-24T18:08:50.491Z,40.40
2019-03-24T18:11:28.588Z,41.90
2019-03-24T18:14:06.696Z,45.10
2019-03-24T18:16:44.318Z,45.90
2019-03-24T18:19:19.851Z,46.50
2019-03-24T18:21:55.020Z,47.50
2019-03-24T18:24:30.323Z,48.30
2019-03-24T18:27:05.025Z,48.90
2019-03-24T18:29:36.938Z,49.60
2019-03-24T18:32:08.577Z,50.30
2019-03-24T18:34:42.817Z,50.60
2019-03-24T18:37:14.713Z,51.20
2019-03-24T18:39:46.259Z,51.70
2019-03-24T18:42:18.225Z,52.00
2019-03-24T18:44:49.972Z,52.70
2019-03-24T18:47:21.181Z,52.60
2019-03-24T18:49:52.663Z,52.60
2019-03-24T18:52:24.303Z,52.90
2019-03-24T18:54:55.724Z,53.20
2019-03-24T18:57:27.289Z,53.30
2019-03-24T18:59:58.937Z,53.30
2019-03-24T19:02:30.889Z,53.00
2019-03-24T19:05:02.098Z,53.30
2019-03-24T19:07:34.693Z,53.30
2019-03-24T19:10:07.364Z,53.20
2019-03-24T19:12:38.995Z,53.30
2019-03-24T19:15:12.187Z,53.50
2019-03-24T19:17:43.500Z,53.50
2019-03-24T19:20:16.404Z,53.70
2019-03-24T19:22:48.282Z,53.70
2019-03-24T19:25:22.494Z,54.10
2019-03-24T19:27:54.568Z,54.00
2019-03-24T19:30:42.631Z,54.20
2019-03-24T19:33:13.837Z,54.50
2019-03-24T19:35:46.193Z,54.60
2019-03-24T19:38:17.767Z,54.30
2019-03-24T19:40:50.035Z,54.50
2019-03-24T19:43:21.620Z,54.50
2019-03-24T19:45:54.796Z,54.20
2019-03-24T19:48:26.114Z,54.20
2019-03-24T19:50:57.300Z,54.10
2019-03-24T19:53:29.075Z,54.10
2019-03-24T19:56:00.606Z,54.10
2019-03-24T19:58:31.688Z,54.00
2019-03-24T20:01:02.904Z,53.80
2019-03-24T20:03:34.149Z,53.40
2019-03-24T20:06:05.800Z,53.40
2019-03-24T20:08:37.300Z,53.30
2019-03-24T20:11:08.636Z,53.40
2019-03-24T20:13:40.256Z,53.50
2019-03-24T20:16:11.762Z,53.40
2019-03-24T20:18:43.357Z,53.20
2019-03-24T20:21:14.590Z,53.10
2019-03-24T20:23:45.800Z,53.00
2019-03-24T20:26:17.126Z,52.90
2019-03-24T20:28:48.247Z,52.80
2019-03-24T20:31:19.766Z,52.60
2019-03-24T20:33:59.613Z,52.60
2019-03-24T20:36:32.343Z,52.50
2019-03-24T20:39:12.061Z,52.60
2019-03-24T20:41:43.732Z,53.00
2019-03-24T20:44:20.752Z,52.10
2019-03-24T20:46:52.055Z,52.30
2019-03-24T20:49:23.209Z,52.60
2019-03-24T20:51:55.521Z,52.40
2019-03-24T20:54:26.898Z,52.50
2019-03-24T20:56:59.550Z,52.30
2019-03-24T20:59:31.976Z,52.40
2019-03-24T21:02:03.962Z,52.40
2019-03-24T21:04:38.303Z,52.20
2019-03-24T21:07:10.126Z,52.40
2019-03-24T21:09:41.655Z,52.60
2019-03-24T21:12:14.697Z,52.60
2019-03-24T21:14:46.216Z,52.60
2019-03-24T21:17:17.442Z,52.70
2019-03-24T21:19:52.207Z,52.70
2019-03-24T21:22:25.315Z,52.80
2019-03-24T21:24:56.714Z,53.20
2019-03-24T21:27:29.548Z,53.20
2019-03-24T21:30:02.711Z,53.60
2019-03-24T21:32:34.260Z,53.70
2019-03-24T21:35:05.909Z,53.80
2019-03-24T21:37:37.106Z,53.60
2019-03-24T21:40:08.914Z,53.60
2019-03-24T21:42:41.394Z,53.50
2019-03-24T21:45:13.538Z,53.60
2019-03-24T21:47:49.581Z,53.50
2019-03-24T21:50:20.904Z,53.40
2019-03-24T21:53:01.307Z,53.50
2019-03-24T21:55:32.452Z,53.80
2019-03-24T21:58:04.345Z,55.00
2019-03-24T22:00:36.762Z,56.20
2019-03-24T22:03:09.063Z,56.60
2019-03-24T22:05:40.845Z,56.20
2019-03-24T22:08:13.220Z,56.80
2019-03-24T22:10:44.816Z,56.40
2019-03-24T22:13:16.020Z,55.60
2019-03-24T22:15:47.532Z,55.90
2019-03-24T22:18:19.165Z,55.40
2019-03-24T22:20:51.336Z,56.00
2019-03-24T22:23:22.487Z,56.70
2019-03-24T22:25:53.635Z,55.50
2019-03-24T22:28:24.825Z,55.60
2019-03-24T22:30:55.967Z,55.60
2019-03-24T22:33:29.547Z,55.40
2019-03-24T22:36:01.436Z,56.90
2019-03-24T22:38:32.598Z,57.00
2019-03-24T22:41:04.564Z,57.40
2019-03-24T22:43:36.504Z,56.90
2019-03-24T22:46:07.766Z,56.70
2019-03-24T22:48:39.854Z,57.60
2019-03-24T22:51:11.167Z,57.40
2019-03-24T22:53:42.294Z,57.80
2019-03-24T22:56:13.787Z,57.70
2019-03-24T22:58:45.562Z,57.00
2019-03-24T23:01:19.818Z,57.30
2019-03-24T23:03:51.357Z,57.10
2019-03-24T23:06:22.354Z,57.20
2019-03-24T23:08:53.449Z,57.60
2019-03-24T23:11:24.597Z,58.10
2019-03-24T23:13:56.571Z,58.40
2019-03-24T23:16:27.653Z,58.70
2019-03-24T23:18:59.219Z,58.70
2019-03-24T23:21:30.236Z,58.70
2019-03-24T23:24:01.378Z,59.00
2019-03-24T23:26:33.082Z,58.70
2019-03-24T23:29:04.259Z,58.60
2019-03-24T23:31:35.802Z,59.10
2019-03-24T23:34:07.294Z,58.70
2019-03-24T23:36:38.444Z,59.10
2019-03-24T23:39:10.259Z,59.20
2019-03-24T23:41:41.415Z,59.10
2019-03-24T23:44:13.215Z,59.50
2019-03-24T23:46:44.463Z,59.30
2019-03-24T23:49:16.031Z,59.50
2019-03-24T23:51:47.127Z,59.60
2019-03-24T23:54:27.058Z,59.70
2019-03-24T23:56:53.016Z,59.80
2019-03-24T23:59:24.206Z,59.70
